Flight Track Log - Related Links

Times and Time Zones

All times are in EST time to prevent confusion due to time zone crossing. See the N193SF flight status page for this flight to view local times or setup timezone preferences in your user account.

Time Position Orientation Groundspeed Altitude Reporting Facility
EST Latitude Longitude Course Direction KTS MPH feet Rate Location/Type
Thu 03:55:02 PM 37.8333 -121.5667 38° Northeast 152 175 4,700  Level Northern Cal TRACON
Thu 03:56:02 PM 37.8667 -121.5333 38° Northeast 154 177 5,300 600 Climbing Northern Cal TRACON
Thu 03:57:02 PM 37.8833 -121.4833 67° East 153 176 5,900 600 Climbing Northern Cal TRACON
Thu 03:58:02 PM 37.9167 -121.4500 38° Northeast 154 177 6,500 600 Climbing Northern Cal TRACON
Thu 03:59:02 PM 37.9500 -121.4000 50° Northeast 156 180 7,100 600 Climbing Northern Cal TRACON
Thu 04:00:02 PM 37.9667 -121.3667 58° Northeast 159 183 7,700 567 Climbing Northern Cal TRACON
Thu 04:02:02 PM 38.0333 -121.2833 45° Northeast 156 180 8,800 564 Climbing Northern Cal TRACON
Thu 04:03:03 PM 38.0500 -121.2333 52° Northeast 155 178 9,400 600 Climbing Northern Cal TRACON
Thu 04:04:02 PM 38.0833 -121.2000 38° Northeast 155 178 10,000 600 Climbing Northern Cal TRACON
Thu 04:05:03 PM 38.1000 -121.1500 67° East 155 178 10,600 595 Climbing Northern Cal TRACON
Thu 04:06:03 PM 38.1333 -121.1167 38° Northeast 153 176 11,200 600 Climbing Northern Cal TRACON
Thu 04:07:03 PM 38.1667 -121.0667 50° Northeast 157 181 11,800 600 Climbing Northern Cal TRACON
Thu 04:08:03 PM 38.1833 -121.0167 67° East 156 180 12,400 462 Climbing Northern Cal TRACON
Thu 04:08:34 PM 38.1989 -121.0114 15° North 156 180 12,500 65 Climbing Oakland Center
Thu 04:09:35 PM 38.2289 -120.9636 51° Northeast 167 192 12,500 195 Level Oakland Center
Thu 04:10:37 PM 38.2694 -120.9014 50° Northeast 186 214 12,900 537 Climbing Oakland Center
Thu 04:11:38 PM 38.2989 -120.8564 50° Northeast 176 203 13,600 683 Climbing Oakland Center
Thu 04:12:40 PM 38.3269 -120.8125 51° Northeast 164 189 14,300 629 Climbing Oakland Center
Thu 04:13:42 PM 38.3544 -120.7697 51° Northeast 158 182 14,900 581 Climbing Oakland Center
Thu 04:14:44 PM 38.3817 -120.7278 50° Northeast 156 180 15,500 293 Climbing Oakland Center
Thu 04:15:45 PM 38.4097 -120.6831 51° Northeast 160 184 15,500  Level Oakland Center
Thu 04:16:47 PM 38.4456 -120.6281 50° Northeast 167 192 15,500  Level Oakland Center
Thu 04:17:49 PM 38.4753 -120.5797 52° Northeast 173 199 15,500  Level Oakland Center
Thu 04:18:51 PM 38.5072 -120.5325 49° Northeast 175 201 15,500  Level Oakland Center
Thu 04:19:52 PM 38.5369 -120.4831 52° Northeast 175 201 15,500  Level Oakland Center
Thu 04:20:54 PM 38.5692 -120.4342 50° Northeast 180 207 15,500  Level Oakland Center
Thu 04:21:56 PM 38.5994 -120.3861 51° Northeast 175 201 15,500  Level Oakland Center
Thu 04:22:58 PM 38.6422 -120.3506 33° Northeast 186 214 15,500  Level Oakland Center
Thu 04:23:59 PM 38.6922 -120.3097 33° Northeast 178 205 15,500  Level Oakland Center
Thu 04:25:01 PM 38.7336 -120.2750 33° Northeast 179 206 15,500  Level Oakland Center
Thu 04:26:03 PM 38.7761 -120.2403 32° Northeast 180 207 15,500  Level Oakland Center
Thu 04:27:05 PM 38.8175 -120.2058 33° Northeast 178 205 15,500  Level Oakland Center
Thu 04:28:06 PM 38.8592 -120.1714 33° Northeast 178 205 15,500 -49 Level Oakland Center
Thu 04:29:08 PM 38.9025 -120.1356 33° Northeast 183 211 15,400 -97 Descending Oakland Center
Thu 04:31:00 PM 38.8299 -120.0602 141° Southeast  Level Estimated
Thu 04:38:00 PM 38.5571 -119.7792 141° Southeast  Level Estimated
Thu 04:39:00 PM 38.5181 -119.7392 141° Southeast  Level Estimated
Thu 04:40:00 PM 38.4790 -119.6993 141° Southeast  Level Estimated
Thu 04:41:00 PM 38.4400 -119.6594 141° Southeast  Level Estimated
Thu 04:42:00 PM 38.4009 -119.6196 141° Southeast  Level Estimated
Thu 04:43:00 PM 38.3618 -119.5798 141° Southeast  Level Estimated
Thu 04:44:00 PM 38.3228 -119.5400 141° Southeast  Level Estimated
Thu 04:45:00 PM 38.2836 -119.5003 141° Southeast  Level Estimated
Thu 04:46:00 PM 38.2445 -119.4606 141° Southeast  Level Estimated
Thu 04:47:00 PM 38.2054 -119.4210 141° Southeast  Level Estimated
Thu 04:48:00 PM 38.1663 -119.3814 142° Southeast  Level Estimated
Thu 04:49:00 PM 38.1271 -119.3419 142° Southeast  Level Estimated
Thu 04:50:00 PM 38.0879 -119.3024 142° Southeast  Level Estimated
Thu 04:51:00 PM 38.0488 -119.2629 142° Southeast  Level Estimated
Thu 04:52:00 PM 38.0095 -119.2235 142° Southeast  Level Estimated
Thu 04:53:00 PM 37.9703 -119.1841 142° Southeast  Level Estimated
Thu 04:54:00 PM 37.9311 -119.1448 142° Southeast  Level Estimated
Thu 04:55:00 PM 37.8919 -119.1055 142° Southeast  Level Estimated
Thu 04:56:00 PM 37.8526 -119.0662 142° Southeast  Level Estimated
Thu 04:57:00 PM 37.8134 -119.0270 142° Southeast  Level Estimated
Thu 04:58:00 PM 37.7741 -118.9879 142° Southeast  Level Estimated
Thu 04:59:00 PM 37.7348 -118.9487 142° Southeast  Level Estimated
Thu 05:00:00 PM 37.6955 -118.9097 142° Southeast  Level Estimated
Thu 05:01:00 PM 37.6562 -118.8706 142° Southeast  Level Estimated
Thu 05:02:00 PM 37.6241 -118.8388 142° Southeast  Level Estimated
Thu 05:03:00 PM 37.6241 -118.8388 180° South  Level Estimated
Thu 05:04:00 PM 37.6241 -118.8388 180° South  Level Estimated
Thu 05:05:00 PM 37.6241 -118.8388 180° South  Level Estimated
Thu 05:06:00 PM 37.6241 -118.8388 180° South  Level Estimated
Thu 05:07:00 PM 37.6241 -118.8388 180° South  Level Estimated
Thu 05:08:00 PM 37.6241 -118.8388 180° South  Level Estimated
Thu 05:09:00 PM 37.6241 -118.8388 180° South  Level Estimated
Thu 05:10:00 PM 37.6241 -118.8388 180° South  Level Estimated
Thu 05:11:00 PM 37.6241 -118.8388 180° South  Level Estimated
Thu 05:12:00 PM 37.6241 -118.8388 180° South  Level Estimated
Thu 05:13:00 PM 37.6241 -118.8388 180° South  Level Estimated
Thu 05:14:00 PM 37.6241 -118.8388 180° South  Level Estimated
Thu 05:15:00 PM 37.6241 -118.8388 180° South  Level Estimated
Thu 05:16:00 PM 37.6241 -118.8388 180° South  Level Estimated
Thu 05:17:00 PM 37.6241 -118.8388 180° South  Level Estimated

Login

Don't have an account? Register now (free) for customized features, flight alerts, and more!